Αρχική σελίδα
METAR-TAF:

METAR-TAF

Αεροδρόμια :

Maracay, Βενεζουέλα

γεωγραφικό πλάτος: 10-15N, γεωγραφικό μήκος: 067-39W, υψόμετρο: 436 μ

Παρών καιρός

Η αναφορά έγινε 57 λεπτά πριν, στις 12:03 UTC
Άνεμος 3 kt από Α
Θερμοκρασία 23°C
Υγρασία 89%
Πίεση 1018 hPa

METAR: SVBS 161203Z AUTO 09003KT NCD 23/21 Q1018

Χρόνος: 09:00 (13:00 UTC)


TAF: λείπει

Μετεωρολογικές αναφορές και προγνώσεις για περισσότερα από 4000 αεροδρόμια (δελτία METAR και TAF).

Οι διαθέσιμοι σταθμοί απεικονίζονται στο χάρτη με κίτρινες και κόκκινες κουκκίδες.

Μετακινήστε το ποντίκι πάνω από τις κουκκίδες για να δείτε το όνομα του σταθμού.

Στη συνέχεια, κάντε κλικ για να δείτε τις μετεωρολογικές αναφορές και τις προγνώσεις καιρού.

Για να αλλάξετε το χάρτη: κάντε κλικ στα πράσινα κουμπιά με τον μαύρο σταυρό για να ζουμάρετε, στο πράσινο κουμπί με την παύλα για να αφαιρέσετε το ζουμ ή στα πράσινα βέλη για να αντιπαραβάλλετε χάρτες.


METAR-TAF: